Time;durP1;ratioP1;P1;durP2;ratioP2;P2;SDS_P1;SDS_P2;PMS_P1;PMS_P2;Temp;Humidity;BMP_temperature;BMP_pressure;BME280_temperature;BME280_humidity;BME280_pressure;Samples;Min_cycle;Max_cycle;Signal;HPM_P1;HPM_P2
2022/05/30 00:00:38;;;;;;;5.90;1.58;;;8.10;99.90;;;;;;4964447;28;20047;-77
2022/05/30 00:03:04;;;;;;;5.00;1.95;;;8.00;99.90;;;;;;4966310;28;20053;-76
2022/05/30 00:05:30;;;;;;;2.78;1.35;;;8.00;99.90;;;;;;4967813;28;20125;-76
2022/05/30 00:07:57;;;;;;;8.68;2.28;;;7.90;99.90;;;;;;4963360;28;20054;-77
2022/05/30 00:10:22;;;;;;;5.28;1.92;;;7.80;99.90;;;;;;4964520;28;20043;-79
2022/05/30 00:12:48;;;;;;;4.47;1.75;;;7.90;99.90;;;;;;4965917;28;20541;-78
2022/05/30 00:15:17;;;;;;;3.90;1.25;;;7.90;99.90;;;;;;4964327;28;20049;-79
2022/05/30 00:17:43;;;;;;;3.73;1.23;;;8.00;99.90;;;;;;4966115;28;20066;-79
2022/05/30 00:20:10;;;;;;;6.03;1.73;;;8.00;99.90;;;;;;4967352;28;20298;-79
2022/05/30 00:22:36;;;;;;;4.47;1.20;;;8.00;99.90;;;;;;4964326;28;20063;-78
2022/05/30 00:25:02;;;;;;;6.63;1.30;;;8.00;99.90;;;;;;4963413;28;20073;-78
2022/05/30 00:27:27;;;;;;;7.28;0.90;;;8.00;99.90;;;;;;4966709;28;20035;-79
2022/05/30 00:29:53;;;;;;;3.80;2.03;;;8.00;99.90;;;;;;4965253;28;20050;-79
2022/05/30 00:32:18;;;;;;;3.90;1.33;;;7.90;99.90;;;;;;4963247;28;20669;-77
2022/05/30 00:34:44;;;;;;;5.63;1.33;;;8.10;99.90;;;;;;4965201;28;20047;-76
2022/05/30 00:37:10;;;;;;;6.40;0.95;;;8.00;99.90;;;;;;4965488;28;20129;-77
2022/05/30 00:39:35;;;;;;;4.82;0.80;;;8.00;99.90;;;;;;4967241;28;20070;-77
2022/05/30 00:42:10;;;;;;;2.85;1.00;;;8.10;99.90;;;;;;4964691;28;20049;-77
2022/05/30 00:44:36;;;;;;;2.60;0.93;;;8.20;99.90;;;;;;4965542;28;20050;-77
2022/05/30 00:47:02;;;;;;;7.53;1.48;;;8.30;99.90;;;;;;4963823;28;20138;-77
2022/05/30 00:49:28;;;;;;;6.40;1.85;;;8.20;99.90;;;;;;4964768;28;20129;-78
2022/05/30 00:51:56;;;;;;;4.35;1.20;;;8.30;99.90;;;;;;4965567;28;20043;-77
2022/05/30 00:54:28;;;;;;;9.52;2.42;;;8.20;99.90;;;;;;4965449;28;20138;-77
2022/05/30 00:56:57;;;;;;;1.67;0.75;;;8.30;99.90;;;;;;4964771;28;20047;-78
2022/05/30 00:59:23;;;;;;;4.25;0.90;;;8.30;99.90;;;;;;4965464;28;20026;-77
2022/05/30 01:01:49;;;;;;;1.35;0.70;;;8.40;99.90;;;;;;4965718;28;20046;-77
2022/05/30 01:07:10;;;;;;;5.38;1.55;;;8.30;99.90;;;;;;4963573;28;20047;-77
2022/05/30 01:09:40;;;;;;;3.65;1.38;;;8.30;99.90;;;;;;4964910;28;20041;-76
2022/05/30 01:12:12;;;;;;;5.43;1.38;;;8.30;99.90;;;;;;4963005;28;20039;-78
2022/05/30 01:14:40;;;;;;;3.63;1.10;;;8.20;99.90;;;;;;4963832;28;20831;-79
2022/05/30 01:17:11;;;;;;;4.40;1.75;;;8.20;99.90;;;;;;4966325;28;20078;-76
2022/05/30 01:19:55;;;;;;;4.05;1.40;;;8.30;99.90;;;;;;4964171;28;20046;-76
2022/05/30 01:22:46;;;;;;;6.20;1.55;;;8.20;99.90;;;;;;4975412;28;20125;-77
2022/05/30 01:25:31;;;;;;;4.75;1.55;;;8.10;99.90;;;;;;4964195;28;20481;-77
2022/05/30 01:28:06;;;;;;;4.63;1.55;;;8.00;99.90;;;;;;4964522;28;20039;-77
2022/05/30 01:30:35;;;;;;;5.75;1.38;;;8.00;99.90;;;;;;4964653;28;20043;-78
2022/05/30 01:33:00;;;;;;;4.78;1.23;;;8.00;99.90;;;;;;4964971;28;20359;-77
2022/05/30 01:35:28;;;;;;;5.00;1.30;;;7.90;99.90;;;;;;4963342;28;20055;-78
2022/05/30 01:37:59;;;;;;;9.50;1.77;;;7.80;99.90;;;;;;4964514;28;20038;-78
2022/05/30 01:40:26;;;;;;;6.18;2.15;;;7.80;99.90;;;;;;4963056;28;20055;-78
2022/05/30 01:42:55;;;;;;;3.83;1.05;;;7.80;99.90;;;;;;4964113;28;20117;-78
2022/05/30 01:45:23;;;;;;;6.57;2.00;;;7.70;99.90;;;;;;4963141;28;20062;-78
2022/05/30 01:47:49;;;;;;;5.55;2.13;;;7.80;99.90;;;;;;4966502;28;20042;-78
2022/05/30 01:50:15;;;;;;;1.83;1.52;;;7.70;99.90;;;;;;4966009;28;20129;-79
2022/05/30 01:52:41;;;;;;;5.10;1.67;;;7.60;99.90;;;;;;4962453;28;20082;-77
2022/05/30 01:55:07;;;;;;;7.72;2.30;;;7.60;99.90;;;;;;4965051;28;20461;-77
2022/05/30 01:57:33;;;;;;;4.05;1.35;;;7.60;99.90;;;;;;4963467;28;20054;-79
2022/05/30 01:59:58;;;;;;;10.63;2.22;;;7.60;99.90;;;;;;4961930;28;20045;-77
2022/05/30 02:02:24;;;;;;;5.13;1.20;;;7.60;99.90;;;;;;4961530;28;20078;-78
2022/05/30 02:04:52;;;;;;;4.78;1.60;;;7.60;99.90;;;;;;4962125;28;20041;-77
2022/05/30 02:07:18;;;;;;;3.42;1.77;;;7.50;99.90;;;;;;4963727;28;20416;-77
2022/05/30 02:09:44;;;;;;;9.95;2.30;;;7.60;99.90;;;;;;4963348;28;20046;-77
2022/05/30 02:12:11;;;;;;;10.88;2.95;;;7.40;99.90;;;;;;4964745;28;20055;-77
2022/05/30 02:14:37;;;;;;;4.60;2.05;;;7.40;99.90;;;;;;4964089;28;20050;-78
2022/05/30 02:17:07;;;;;;;3.40;1.48;;;7.50;99.90;;;;;;4964692;28;20061;-75
2022/05/30 02:19:37;;;;;;;4.00;2.03;;;7.40;99.90;;;;;;4962513;28;20073;-79
2022/05/30 02:22:04;;;;;;;5.78;2.38;;;7.40;99.90;;;;;;4958116;28;20082;-75
2022/05/30 02:24:30;;;;;;;5.63;1.92;;;7.40;99.90;;;;;;4963624;28;20453;-78
2022/05/30 02:26:55;;;;;;;6.60;2.40;;;7.30;99.90;;;;;;4965246;28;20117;-77
2022/05/30 02:29:21;;;;;;;7.03;1.90;;;7.40;99.90;;;;;;4961849;28;20046;-78
2022/05/30 02:31:47;;;;;;;3.50;1.83;;;7.30;99.90;;;;;;4964334;28;20078;-78
2022/05/30 02:36:57;;;;;;;3.60;1.67;;;7.40;99.90;;;;;;4963233;28;20137;-78
2022/05/30 02:39:25;;;;;;;5.38;1.80;;;7.40;99.90;;;;;;4969167;28;20743;-78
2022/05/30 02:41:52;;;;;;;7.60;2.60;;;7.30;99.90;;;;;;4970680;28;20047;-77
2022/05/30 02:44:19;;;;;;;3.78;1.42;;;7.30;99.90;;;;;;4963992;28;20042;-77
2022/05/30 02:46:46;;;;;;;4.72;1.15;;;7.40;99.90;;;;;;4971922;28;20089;-78
2022/05/30 02:49:12;;;;;;;16.10;3.20;;;7.40;99.90;;;;;;4970821;28;20409;-78
2022/05/30 02:51:38;;;;;;;4.00;1.73;;;7.30;99.90;;;;;;4969036;28;20047;-78
2022/05/30 02:54:04;;;;;;;4.68;2.10;;;7.40;99.90;;;;;;4968784;28;20445;-77
2022/05/30 02:56:29;;;;;;;5.82;1.80;;;7.50;99.90;;;;;;4969675;28;20129;-78
2022/05/30 02:58:58;;;;;;;8.95;2.45;;;7.50;99.90;;;;;;4969860;28;20383;-78
2022/05/30 03:01:24;;;;;;;6.13;2.10;;;7.40;99.90;;;;;;4971160;28;20413;-78
2022/05/30 03:03:50;;;;;;;6.97;2.22;;;7.60;99.90;;;;;;4968863;28;20418;-79
2022/05/30 03:06:16;;;;;;;5.97;2.50;;;7.60;99.90;;;;;;4968713;28;20035;-77
2022/05/30 03:08:42;;;;;;;4.43;2.47;;;7.50;99.90;;;;;;4970051;28;20047;-77
2022/05/30 03:11:08;;;;;;;7.80;2.83;;;7.70;99.90;;;;;;4971170;28;20521;-77
2022/05/30 03:13:34;;;;;;;18.13;3.40;;;7.70;99.90;;;;;;4967137;28;20042;-78
2022/05/30 03:16:00;;;;;;;6.15;2.25;;;7.60;99.90;;;;;;4967689;28;20047;-78
2022/05/30 03:18:26;;;;;;;5.65;1.90;;;7.60;99.90;;;;;;4969599;28;20192;-78
2022/05/30 03:20:52;;;;;;;19.55;3.20;;;7.60;99.90;;;;;;4968491;28;20406;-78
2022/05/30 03:23:17;;;;;;;2.92;2.13;;;7.70;99.90;;;;;;4969662;28;20041;-77
2022/05/30 03:25:43;;;;;;;8.25;3.40;;;7.60;99.90;;;;;;4970240;28;20059;-78
2022/05/30 03:28:08;;;;;;;14.90;4.35;;;7.60;99.90;;;;;;4968119;28;20047;-78
2022/05/30 03:30:37;;;;;;;8.90;2.85;;;7.60;99.90;;;;;;4968669;28;20034;-78
2022/05/30 03:33:04;;;;;;;5.13;3.47;;;7.50;99.90;;;;;;4967193;28;20262;-76
2022/05/30 03:35:30;;;;;;;8.48;3.22;;;7.50;99.90;;;;;;4967478;28;20050;-78
2022/05/30 03:37:56;;;;;;;9.10;3.92;;;7.50;99.90;;;;;;4971119;28;20406;-77
2022/05/30 03:40:21;;;;;;;9.63;2.70;;;7.50;99.90;;;;;;4969360;28;20053;-78
2022/05/30 03:42:47;;;;;;;9.95;3.47;;;7.40;99.90;;;;;;4970146;28;20383;-78
2022/05/30 03:45:13;;;;;;;6.32;2.75;;;7.40;99.90;;;;;;4969926;28;20038;-78
2022/05/30 03:47:45;;;;;;;6.68;3.15;;;7.30;99.90;;;;;;4969549;28;20402;-76
2022/05/30 03:50:15;;;;;;;10.85;2.67;;;7.40;99.90;;;;;;4966019;28;20082;-78
2022/05/30 03:52:40;;;;;;;5.72;2.70;;;7.40;99.90;;;;;;4964846;28;20058;-78
2022/05/30 03:55:13;;;;;;;8.93;3.30;;;7.50;99.90;;;;;;4966010;28;20055;-79
2022/05/30 03:57:40;;;;;;;7.35;3.17;;;7.40;99.90;;;;;;4946760;28;20055;-77
2022/05/30 04:00:08;;;;;;;12.88;2.92;;;7.40;99.90;;;;;;4954004;28;20042;-78
2022/05/30 04:02:33;;;;;;;7.70;3.13;;;7.50;99.90;;;;;;4966438;28;20074;-78
2022/05/30 04:04:59;;;;;;;5.65;3.17;;;7.50;99.90;;;;;;4964542;28;20109;-77
2022/05/30 04:07:25;;;;;;;5.70;2.50;;;7.60;99.90;;;;;;4966118;28;20050;-78
2022/05/30 04:09:50;;;;;;;6.25;3.22;;;7.60;99.90;;;;;;4964768;28;20035;-78
2022/05/30 04:12:20;;;;;;;36.97;4.18;;;7.60;99.90;;;;;;4967745;28;20177;-78
2022/05/30 04:14:53;;;;;;;11.23;3.08;;;7.60;99.90;;;;;;4966153;28;20050;-78
2022/05/30 04:17:18;;;;;;;7.93;3.40;;;7.50;99.90;;;;;;4967330;28;20125;-78
2022/05/30 04:19:44;;;;;;;6.82;3.10;;;7.70;99.90;;;;;;4947113;28;20134;-77
2022/05/30 04:22:09;;;;;;;6.68;3.40;;;7.80;99.90;;;;;;4964550;28;20050;-77
2022/05/30 04:24:35;;;;;;;11.98;4.95;;;7.80;99.90;;;;;;4963983;28;20043;-78
2022/05/30 04:27:01;;;;;;;11.95;4.60;;;8.20;99.90;;;;;;4965870;28;20031;-78
2022/05/30 04:29:29;;;;;;;10.02;3.97;;;8.30;99.90;;;;;;4967587;28;20063;-77
2022/05/30 04:31:54;;;;;;;8.05;3.28;;;8.40;99.90;;;;;;4965992;28;20449;-79
2022/05/30 04:34:20;;;;;;;11.02;4.03;;;8.60;99.90;;;;;;4962616;28;20039;-78
2022/05/30 04:36:46;;;;;;;8.63;2.83;;;8.50;99.90;;;;;;4964800;28;20398;-79
2022/05/30 04:39:11;;;;;;;5.32;2.58;;;8.50;99.90;;;;;;4965778;28;20077;-78
2022/05/30 04:41:37;;;;;;;6.82;2.42;;;8.60;99.90;;;;;;4965821;28;20614;-78
2022/05/30 04:44:03;;;;;;;5.90;3.03;;;8.60;99.90;;;;;;4964417;28;20453;-76
2022/05/30 04:46:28;;;;;;;11.07;3.58;;;8.60;99.90;;;;;;4966794;28;20042;-79
2022/05/30 04:48:54;;;;;;;4.55;2.42;;;8.60;99.90;;;;;;4965924;28;20042;-79
2022/05/30 04:51:19;;;;;;;10.68;2.97;;;8.60;99.90;;;;;;4964448;28;20047;-76
2022/05/30 04:53:45;;;;;;;5.97;2.55;;;8.70;99.90;;;;;;4964996;28;20383;-79
2022/05/30 04:56:11;;;;;;;3.97;1.95;;;8.60;99.90;;;;;;4965993;28;20161;-79
2022/05/30 04:58:37;;;;;;;3.00;2.30;;;8.60;99.90;;;;;;4965826;28;20136;-78
2022/05/30 05:01:05;;;;;;;4.93;2.97;;;8.60;99.90;;;;;;4946753;28;20069;-76
2022/05/30 05:03:33;;;;;;;4.20;1.85;;;8.60;99.90;;;;;;4963615;28;20039;-79
2022/05/30 05:06:04;;;;;;;3.85;1.90;;;8.60;99.90;;;;;;4963226;28;20062;-78
2022/05/30 05:08:37;;;;;;;4.55;1.77;;;8.70;99.90;;;;;;4966293;28;20050;-78
2022/05/30 05:11:12;;;;;;;3.13;2.33;;;8.70;99.90;;;;;;4953914;28;20047;-77
2022/05/30 05:13:38;;;;;;;7.88;2.90;;;8.90;99.90;;;;;;4951994;28;20047;-78
2022/05/30 05:16:04;;;;;;;9.57;2.75;;;8.90;99.90;;;;;;4948679;28;20047;-78
2022/05/30 05:18:30;;;;;;;4.43;2.63;;;8.90;99.90;;;;;;4964250;28;20034;-80
2022/05/30 05:20:55;;;;;;;3.58;1.92;;;9.10;99.90;;;;;;4964193;28;20046;-80
2022/05/30 05:23:21;;;;;;;4.43;2.85;;;9.00;99.90;;;;;;4964020;28;20035;-80
2022/05/30 05:25:47;;;;;;;6.07;2.20;;;9.00;99.90;;;;;;4965323;28;20039;-80
2022/05/30 05:28:12;;;;;;;3.40;2.08;;;9.10;99.90;;;;;;4964541;28;20402;-79
2022/05/30 05:30:40;;;;;;;2.20;1.60;;;9.10;99.90;;;;;;4963774;28;20051;-76
2022/05/30 05:33:06;;;;;;;4.25;2.28;;;9.20;99.90;;;;;;4963180;28;20038;-79
2022/05/30 05:35:32;;;;;;;3.42;1.83;;;9.10;99.90;;;;;;4964304;28;20049;-79
2022/05/30 05:38:00;;;;;;;6.78;1.75;;;9.20;99.90;;;;;;4964136;28;20039;-79
2022/05/30 05:40:28;;;;;;;1.50;1.38;;;9.20;99.90;;;;;;4964087;28;20122;-79
2022/05/30 05:42:53;;;;;;;1.92;1.50;;;9.10;99.90;;;;;;4963202;28;20070;-79
2022/05/30 05:45:19;;;;;;;2.90;1.63;;;9.30;99.90;;;;;;4965755;28;20086;-77
2022/05/30 05:47:45;;;;;;;4.90;2.38;;;9.40;99.90;;;;;;4965355;28;20167;-79
2022/05/30 05:50:11;;;;;;;3.67;1.67;;;9.30;99.90;;;;;;4962430;28;20042;-79
2022/05/30 05:52:37;;;;;;;3.20;1.52;;;9.40;99.90;;;;;;4963723;28;20043;-78
2022/05/30 05:55:03;;;;;;;3.05;1.30;;;9.50;99.90;;;;;;4962865;28;20051;-79
2022/05/30 05:57:29;;;;;;;5.22;1.40;;;9.50;99.90;;;;;;4980295;28;20401;-82
2022/05/30 05:59:54;;;;;;;1.60;1.02;;;9.60;99.90;;;;;;4964555;28;20034;-78
2022/05/30 06:02:20;;;;;;;0.82;0.70;;;9.60;99.90;;;;;;4963249;28;20412;-77
2022/05/30 06:04:46;;;;;;;1.15;0.73;;;9.50;99.90;;;;;;4961164;28;20038;-78
2022/05/30 06:07:12;;;;;;;3.05;0.70;;;9.70;99.90;;;;;;4962095;28;20117;-78
2022/05/30 06:09:39;;;;;;;2.53;1.27;;;9.90;99.90;;;;;;4963762;28;20046;-78
2022/05/30 06:12:07;;;;;;;1.27;0.82;;;10.10;99.90;;;;;;4951213;28;20085;-77
2022/05/30 06:14:33;;;;;;;4.18;1.67;;;10.20;99.90;;;;;;4962623;28;20042;-77
2022/05/30 06:16:58;;;;;;;2.92;0.70;;;10.10;99.90;;;;;;4964864;28;20047;-78
2022/05/30 06:19:24;;;;;;;3.25;1.35;;;10.10;99.90;;;;;;4962256;28;20461;-78
2022/05/30 06:21:50;;;;;;;1.50;0.50;;;10.20;99.90;;;;;;4960091;28;20090;-77
2022/05/30 06:24:16;;;;;;;4.32;1.10;;;10.20;99.90;;;;;;4958187;28;20102;-77
2022/05/30 06:26:45;;;;;;;1.75;1.15;;;10.30;99.90;;;;;;4962538;28;20101;-77
2022/05/30 06:29:14;;;;;;;1.05;0.75;;;10.20;99.90;;;;;;4962454;28;20089;-77
2022/05/30 06:31:40;;;;;;;0.57;0.40;;;10.20;99.90;;;;;;4963567;28;20442;-77
2022/05/30 06:34:06;;;;;;;3.63;0.60;;;10.30;99.90;;;;;;4962990;28;20043;-76
2022/05/30 06:36:32;;;;;;;1.77;0.50;;;10.40;99.90;;;;;;4962010;28;20043;-77
2022/05/30 06:38:58;;;;;;;3.88;0.95;;;10.40;99.90;;;;;;4962940;28;20425;-77
2022/05/30 06:41:29;;;;;;;1.70;0.95;;;10.50;99.90;;;;;;4959287;28;20055;-77
2022/05/30 06:44:07;;;;;;;3.40;0.50;;;10.50;99.90;;;;;;4962723;28;20046;-77
2022/05/30 06:46:34;;;;;;;1.73;0.88;;;10.50;99.90;;;;;;4965347;28;20113;-77
2022/05/30 06:49:01;;;;;;;2.60;0.75;;;10.60;99.90;;;;;;4961270;28;20073;-81
2022/05/30 06:51:29;;;;;;;2.15;0.70;;;10.70;99.90;;;;;;4958842;28;20146;-77
2022/05/30 06:53:56;;;;;;;2.10;0.55;;;10.90;99.90;;;;;;4964359;28;20525;-77
2022/05/30 06:56:29;;;;;;;4.18;1.13;;;10.70;99.90;;;;;;4962525;28;20055;-76
2022/05/30 06:58:55;;;;;;;2.40;0.82;;;10.60;99.90;;;;;;4962569;28;20078;-77
2022/05/30 07:01:25;;;;;;;6.35;0.95;;;10.40;99.90;;;;;;4960044;28;20116;-77
2022/05/30 07:03:51;;;;;;;5.53;1.00;;;10.30;99.90;;;;;;4959218;28;20043;-77
2022/05/30 07:06:25;;;;;;;2.20;0.60;;;10.20;99.90;;;;;;4960269;28;20058;-77
2022/05/30 07:08:51;;;;;;;1.75;0.30;;;10.40;99.90;;;;;;4962377;28;20055;-77
2022/05/30 07:11:18;;;;;;;9.85;0.93;;;10.30;99.90;;;;;;4961585;28;20510;-77
2022/05/30 07:13:44;;;;;;;1.88;0.82;;;10.30;99.90;;;;;;4964889;28;20481;-77
2022/05/30 07:16:11;;;;;;;4.13;0.70;;;10.30;99.90;;;;;;4963205;28;20454;-77
2022/05/30 07:18:39;;;;;;;2.65;0.80;;;10.50;99.90;;;;;;4961529;28;20133;-76
2022/05/30 07:21:07;;;;;;;1.92;0.80;;;10.50;99.90;;;;;;4961741;28;20102;-77
2022/05/30 07:23:34;;;;;;;1.75;0.45;;;10.50;99.90;;;;;;4962605;28;20446;-77
2022/05/30 07:26:01;;;;;;;2.90;0.43;;;10.50;99.90;;;;;;4965037;28;20061;-77
2022/05/30 07:28:31;;;;;;;2.90;1.02;;;10.60;99.90;;;;;;4964510;28;20035;-78
2022/05/30 07:31:04;;;;;;;1.65;0.70;;;11.80;99.90;;;;;;4965028;28;20047;-77
2022/05/30 07:33:30;;;;;;;0.47;0.40;;;13.10;99.90;;;;;;4967941;28;20058;-78
2022/05/30 07:35:55;;;;;;;3.22;0.55;;;14.40;99.90;;;;;;4965882;28;20383;-79
2022/05/30 07:38:21;;;;;;;2.50;1.00;;;15.20;99.90;;;;;;4963810;28;20081;-77
2022/05/30 07:40:47;;;;;;;1.80;0.43;;;16.00;99.90;;;;;;4966578;28;20047;-77
2022/05/30 07:43:14;;;;;;;1.70;0.47;;;15.60;99.90;;;;;;4966698;28;20066;-80
2022/05/30 07:45:41;;;;;;;2.05;1.10;;;14.50;99.90;;;;;;4963793;28;20453;-77
2022/05/30 07:48:07;;;;;;;1.55;0.40;;;13.90;99.90;;;;;;4961136;28;20042;-78
2022/05/30 07:50:36;;;;;;;3.15;0.30;;;13.70;99.90;;;;;;4958302;28;20039;-77
2022/05/30 07:53:03;;;;;;;1.73;0.40;;;13.10;99.90;;;;;;4966088;28;20051;-75
2022/05/30 07:55:29;;;;;;;0.98;0.30;;;13.60;99.90;;;;;;4967626;28;20061;-77
2022/05/30 07:57:59;;;;;;;3.53;0.70;;;13.80;99.90;;;;;;4966172;28;20078;-78
2022/05/30 08:00:29;;;;;;;2.47;0.73;;;13.50;99.90;;;;;;4964183;28;20093;-77
2022/05/30 08:02:55;;;;;;;1.98;0.70;;;13.50;99.90;;;;;;4966129;28;20785;-78
2022/05/30 08:05:21;;;;;;;1.27;0.40;;;13.10;99.90;;;;;;4966109;28;20135;-75
2022/05/30 08:07:47;;;;;;;1.80;0.60;;;12.90;99.90;;;;;;4966383;28;20049;-78
2022/05/30 08:10:16;;;;;;;1.40;0.63;;;12.60;99.90;;;;;;4958876;28;20042;-78
2022/05/30 08:12:42;;;;;;;2.47;1.08;;;12.20;99.90;;;;;;4964729;28;20043;-78
2022/05/30 08:15:09;;;;;;;2.05;0.77;;;12.00;99.90;;;;;;4964814;28;20588;-74
2022/05/30 08:17:35;;;;;;;1.08;0.45;;;11.70;99.90;;;;;;4966286;28;20074;-78
2022/05/30 08:20:02;;;;;;;0.85;0.75;;;11.70;99.90;;;;;;4964495;28;20661;-76
2022/05/30 08:22:27;;;;;;;3.67;0.30;;;11.60;99.90;;;;;;4966113;28;20470;-77
2022/05/30 08:24:53;;;;;;;1.27;0.40;;;11.40;99.90;;;;;;4966095;28;20042;-77
2022/05/30 08:27:22;;;;;;;2.97;0.82;;;11.40;99.90;;;;;;4965221;28;20118;-76
2022/05/30 08:29:48;;;;;;;5.88;0.82;;;11.40;99.90;;;;;;4964975;28;20077;-76
2022/05/30 08:32:14;;;;;;;2.08;0.85;;;11.50;99.90;;;;;;4966274;28;20066;-77
2022/05/30 08:34:40;;;;;;;6.82;0.93;;;11.60;99.90;;;;;;4966125;28;20043;-77
2022/05/30 08:37:07;;;;;;;1.92;0.68;;;11.60;99.90;;;;;;4963816;28;20035;-77
2022/05/30 08:42:27;;;;;;;2.35;0.40;;;11.70;99.90;;;;;;4966993;28;20519;-77
2022/05/30 08:44:54;;;;;;;3.92;0.82;;;11.80;99.90;;;;;;4966560;28;20049;-78
2022/05/30 08:47:29;;;;;;;2.53;0.40;;;11.90;99.90;;;;;;4965175;28;20513;-76
2022/05/30 08:50:07;;;;;;;2.58;0.60;;;11.90;99.90;;;;;;4963832;28;20045;-77
2022/05/30 08:52:43;;;;;;;3.95;0.73;;;11.90;99.90;;;;;;4964506;28;20457;-77
2022/05/30 08:55:30;;;;;;;2.30;0.88;;;12.00;99.90;;;;;;4965575;28;20070;-77
2022/05/30 08:58:20;;;;;;;2.05;0.60;;;12.20;99.90;;;;;;4966486;28;20046;-77
2022/05/30 09:00:51;;;;;;;1.80;0.80;;;12.40;99.90;;;;;;4964095;28;20089;-78
2022/05/30 09:03:25;;;;;;;3.65;0.75;;;12.50;99.90;;;;;;4961059;28;20298;-78
2022/05/30 09:05:56;;;;;;;4.72;0.95;;;12.80;99.90;;;;;;4963615;28;20057;-77
2022/05/30 09:08:43;;;;;;;2.10;0.32;;;12.80;99.90;;;;;;4965579;28;20042;-77
2022/05/30 09:11:37;;;;;;;0.80;0.43;;;12.80;99.90;;;;;;4964098;28;20454;-77
2022/05/30 09:14:11;;;;;;;1.02;0.32;;;12.80;99.90;;;;;;4964687;28;20051;-79
2022/05/30 09:16:43;;;;;;;2.60;0.38;;;13.00;99.90;;;;;;4963807;28;20391;-78
2022/05/30 09:19:12;;;;;;;1.73;0.20;;;12.90;99.90;;;;;;4965109;28;20047;-78
2022/05/30 09:21:38;;;;;;;0.95;0.10;;;13.00;99.90;;;;;;4962865;28;20282;-77
2022/05/30 09:24:04;;;;;;;1.65;0.20;;;13.10;99.90;;;;;;4964767;28;20414;-77
2022/05/30 09:26:36;;;;;;;0.50;0.20;;;13.00;99.90;;;;;;4966403;28;20406;-80
2022/05/30 09:29:31;;;;;;;2.10;0.20;;;13.20;99.90;;;;;;4965240;28;20438;-79
2022/05/30 09:32:14;;;;;;;1.40;0.30;;;13.00;99.90;;;;;;4972877;28;20125;-80
2022/05/30 09:34:45;;;;;;;1.02;0.20;;;12.90;99.90;;;;;;4966616;28;20154;-78
2022/05/30 09:37:25;;;;;;;6.25;0.85;;;13.00;99.90;;;;;;4966293;28;20127;-76
2022/05/30 09:39:51;;;;;;;2.15;0.50;;;13.10;99.90;;;;;;4963379;28;20093;-76
2022/05/30 09:42:47;;;;;;;1.30;0.63;;;13.40;99.90;;;;;;4965277;28;20449;-76
2022/05/30 09:45:24;;;;;;;1.17;0.95;;;13.50;99.90;;;;;;4964679;28;20042;-76
2022/05/30 09:48:05;;;;;;;1.95;0.40;;;13.50;99.90;;;;;;4964091;28;20046;-78
2022/05/30 09:50:31;;;;;;;4.97;0.82;;;13.20;99.90;;;;;;4961038;28;20047;-77
2022/05/30 09:52:58;;;;;;;4.03;0.60;;;12.60;99.90;;;;;;4960218;28;20061;-76
2022/05/30 09:55:30;;;;;;;3.35;0.70;;;12.40;99.90;;;;;;4962470;28;20496;-77
2022/05/30 09:57:57;;;;;;;4.30;0.82;;;12.10;99.90;;;;;;4950882;28;20059;-75
2022/05/30 10:00:48;;;;;;;2.40;0.70;;;11.80;99.90;;;;;;4945606;28;20047;-77
2022/05/30 10:03:29;;;;;;;1.95;0.60;;;11.50;99.90;;;;;;4946240;28;20513;-78
2022/05/30 10:06:13;;;;;;;7.15;1.08;;;11.40;99.90;;;;;;4958995;28;20043;-79
2022/05/30 10:08:39;;;;;;;2.85;0.90;;;11.20;99.90;;;;;;4963710;28;20532;-79
2022/05/30 10:11:06;;;;;;;1.55;0.70;;;11.10;99.90;;;;;;4954867;28;20116;-79
2022/05/30 10:13:34;;;;;;;5.03;1.10;;;11.10;99.90;;;;;;4956891;28;20035;-79
2022/05/30 10:16:02;;;;;;;2.35;0.70;;;11.20;99.90;;;;;;4962185;28;20051;-79
2022/05/30 10:18:38;;;;;;;2.28;0.65;;;11.30;99.90;;;;;;4966211;28;20054;-78
2022/05/30 10:21:37;;;;;;;1.98;0.80;;;11.30;99.90;;;;;;4963608;28;20083;-79
2022/05/30 10:30:25;;;;;;;2.38;0.90;;;11.70;99.90;;;;;;4963350;28;20058;-75
2022/05/30 10:32:54;;;;;;;1.08;0.60;;;11.80;99.90;;;;;;4964090;28;20545;-80
2022/05/30 10:35:25;;;;;;;5.53;0.80;;;12.00;99.90;;;;;;4964241;28;20517;-76
2022/05/30 10:38:23;;;;;;;2.17;0.65;;;12.10;99.90;;;;;;4963516;28;20504;-78
2022/05/30 10:41:04;;;;;;;3.58;0.80;;;12.00;99.90;;;;;;4959052;28;20046;-78
2022/05/30 10:43:42;;;;;;;2.22;1.33;;;12.20;99.90;;;;;;4965082;28;20105;-78
2022/05/30 10:46:12;;;;;;;5.32;1.48;;;12.30;99.90;;;;;;4962596;28;20078;-77
2022/05/30 10:49:03;;;;;;;3.15;1.08;;;12.40;99.90;;;;;;4962983;28;20046;-78
2022/05/30 10:51:39;;;;;;;5.70;1.20;;;12.60;99.90;;;;;;4963248;28;20618;-77
2022/05/30 10:54:23;;;;;;;1.65;0.63;;;12.80;99.90;;;;;;4978527;28;20065;-77
2022/05/30 10:56:51;;;;;;;3.20;0.95;;;13.00;99.90;;;;;;4961848;28;20055;-78
2022/05/30 10:59:31;;;;;;;1.27;0.55;;;13.10;99.90;;;;;;4966802;28;20038;-78
2022/05/30 11:02:18;;;;;;;3.40;0.50;;;13.10;99.90;;;;;;4967737;28;20418;-78
2022/05/30 11:04:58;;;;;;;3.85;0.40;;;13.00;99.90;;;;;;4951948;28;20542;-78
2022/05/30 11:07:33;;;;;;;2.10;0.50;;;13.20;99.90;;;;;;4958902;28;20038;-78
2022/05/30 11:10:10;;;;;;;3.35;0.93;;;13.30;99.90;;;;;;4967158;28;20541;-77
2022/05/30 11:12:43;;;;;;;3.20;0.28;;;13.50;99.90;;;;;;4966189;28;20049;-77
2022/05/30 11:15:28;;;;;;;3.45;0.30;;;13.60;99.90;;;;;;4968487;28;20043;-77
2022/05/30 11:18:06;;;;;;;0.50;0.30;;;13.70;99.90;;;;;;4964445;28;20051;-78
2022/05/30 11:20:40;;;;;;;0.80;0.35;;;13.70;99.90;;;;;;4966737;28;20402;-78
2022/05/30 11:23:07;;;;;;;1.02;0.10;;;13.70;99.90;;;;;;4963332;28;20046;-79
2022/05/30 11:25:41;;;;;;;2.25;0.32;;;13.90;99.90;;;;;;4967016;28;20455;-79
2022/05/30 11:28:25;;;;;;;1.02;0.43;;;13.80;99.90;;;;;;4965224;28;20117;-79
2022/05/30 11:31:27;;;;;;;1.33;0.60;;;14.00;99.90;;;;;;4967953;28;20047;-79
2022/05/30 11:34:11;;;;;;;1.15;0.35;;;14.10;99.90;;;;;;4963932;28;20050;-79
2022/05/30 11:36:48;;;;;;;3.78;0.40;;;13.90;99.90;;;;;;4968350;28;20516;-79
2022/05/30 11:39:31;;;;;;;3.60;0.40;;;13.90;99.90;;;;;;4967540;28;20112;-78
2022/05/30 11:42:22;;;;;;;5.85;0.85;;;13.90;99.90;;;;;;4966066;28;20122;-79
2022/05/30 11:44:56;;;;;;;3.70;1.27;;;13.80;99.90;;;;;;4950215;28;20082;-79
2022/05/30 11:47:33;;;;;;;5.97;1.42;;;13.90;99.90;;;;;;4951121;28;20051;-77
2022/05/30 11:50:24;;;;;;;4.07;2.03;;;14.00;99.90;;;;;;4965289;28;20057;-79
2022/05/30 11:53:23;;;;;;;4.03;0.50;;;13.90;99.90;;;;;;4965028;28;20057;-79
2022/05/30 11:56:13;;;;;;;2.67;0.40;;;13.90;99.90;;;;;;4966762;28;20138;-78
2022/05/30 11:59:13;;;;;;;2.60;0.60;;;14.00;99.90;;;;;;4964303;28;20314;-78
2022/05/30 12:01:42;;;;;;;5.10;0.68;;;13.60;99.90;;;;;;4967720;28;20042;-80
2022/05/30 12:04:28;;;;;;;5.20;0.90;;;13.70;99.90;;;;;;4963171;28;20258;-76
2022/05/30 12:07:23;;;;;;;2.60;0.40;;;13.70;99.90;;;;;;4966527;28;20383;-78
2022/05/30 12:09:56;;;;;;;3.60;0.60;;;13.60;99.90;;;;;;4963167;28;20150;-78
2022/05/30 12:12:28;;;;;;;1.83;0.60;;;13.70;99.90;;;;;;4966715;28;20094;-78
2022/05/30 12:15:31;;;;;;;1.55;0.32;;;13.70;99.90;;;;;;4966837;28;20479;-78
2022/05/30 12:24:15;;;;;;;4.03;1.02;;;14.00;99.90;;;;;;4955217;28;20056;-80
2022/05/30 12:26:53;;;;;;;2.47;0.50;;;14.00;99.90;;;;;;4962501;28;20050;-80
2022/05/30 12:29:35;;;;;;;0.75;0.20;;;14.20;99.90;;;;;;4956863;28;20101;-80
2022/05/30 12:32:15;;;;;;;2.03;0.30;;;14.30;99.90;;;;;;4963042;28;20109;-77
2022/05/30 12:35:10;;;;;;;2.40;0.38;;;14.70;99.90;;;;;;4959591;28;20476;-80
2022/05/30 12:37:46;;;;;;;1.95;0.50;;;14.40;99.90;;;;;;4952475;28;20117;-80
2022/05/30 12:40:24;;;;;;;1.27;0.20;;;14.60;99.90;;;;;;4965347;28;20035;-78
2022/05/30 12:43:23;;;;;;;0.57;0.25;;;14.70;99.90;;;;;;4961777;28;20047;-80
2022/05/30 12:46:05;;;;;;;2.30;0.40;;;14.50;99.90;;;;;;4956431;28;20058;-78
2022/05/30 12:48:58;;;;;;;3.72;0.70;;;14.30;99.90;;;;;;4953388;28;20469;-78
2022/05/30 12:51:24;;;;;;;4.72;0.60;;;14.10;99.90;;;;;;4964787;28;20051;-77
2022/05/30 12:53:57;;;;;;;5.50;0.75;;;14.20;99.90;;;;;;4959287;28;20180;-77
2022/05/30 12:56:38;;;;;;;2.50;0.30;;;14.00;99.90;;;;;;4965229;28;20502;-77
2022/05/30 12:59:03;;;;;;;1.00;0.25;;;13.80;99.90;;;;;;4962272;28;20040;-77
2022/05/30 13:01:44;;;;;;;5.45;0.75;;;13.60;99.90;;;;;;4960393;28;20049;-77
2022/05/30 13:04:16;;;;;;;1.48;0.40;;;13.40;99.90;;;;;;4958672;28;20054;-75
2022/05/30 13:06:54;;;;;;;5.07;0.82;;;13.30;99.90;;;;;;4966042;28;20093;-75
2022/05/30 13:09:30;;;;;;;3.85;1.15;;;13.30;99.90;;;;;;4963466;28;20053;-75
2022/05/30 13:12:11;;;;;;;1.50;0.35;;;13.30;99.90;;;;;;4961361;28;20089;-76
2022/05/30 13:14:36;;;;;;;3.92;1.50;;;13.20;99.90;;;;;;4963501;28;20118;-76
2022/05/30 13:17:11;;;;;;;3.80;0.52;;;13.20;99.90;;;;;;4964482;28;20130;-75
2022/05/30 13:19:45;;;;;;;1.63;1.15;;;13.10;99.90;;;;;;4959856;28;20460;-76
2022/05/30 13:22:11;;;;;;;2.05;0.38;;;13.20;99.90;;;;;;4961518;28;20493;-75
2022/05/30 13:24:38;;;;;;;3.20;0.60;;;13.10;99.90;;;;;;4965798;28;20034;-76
2022/05/30 13:27:04;;;;;;;2.03;0.73;;;13.30;99.90;;;;;;4964252;28;20130;-76
2022/05/30 13:29:39;;;;;;;3.67;0.52;;;13.30;99.90;;;;;;4964008;28;20055;-76